Time;durP1;ratioP1;P1;durP2;ratioP2;P2;SDS_P1;SDS_P2;PMS_P1;PMS_P2;Temp;Humidity;BMP_temperature;BMP_pressure;BME280_temperature;BME280_humidity;BME280_pressure;Samples;Min_cycle;Max_cycle;Signal;HPM_P1;HPM_P2
2021/03/03 00:01:04;;;;;;;4.00;3.00;;;23.60;28.40;;;;;;5069502;28;20217;-44
2021/03/03 00:03:30;;;;;;;2.93;2.57;;;23.60;28.50;;;;;;5068503;28;20684;-43
2021/03/03 00:05:56;;;;;;;4.40;2.80;;;23.50;28.40;;;;;;5069401;28;20224;-44
2021/03/03 00:08:22;;;;;;;4.40;2.72;;;23.50;28.40;;;;;;5070592;28;20209;-45
2021/03/03 00:10:47;;;;;;;3.72;2.80;;;23.60;28.40;;;;;;5069849;28;20218;-43
2021/03/03 00:13:13;;;;;;;3.65;2.97;;;23.60;28.40;;;;;;5070168;28;20201;-42
2021/03/03 00:15:39;;;;;;;3.78;2.88;;;23.50;28.40;;;;;;5072799;28;20213;-43
2021/03/03 00:18:05;;;;;;;2.80;2.60;;;23.60;28.40;;;;;;5074496;28;20258;-42
2021/03/03 00:20:31;;;;;;;3.05;2.83;;;23.60;28.40;;;;;;5073508;28;20230;-43
2021/03/03 00:22:57;;;;;;;3.17;2.80;;;23.60;28.50;;;;;;5070769;28;20842;-43
2021/03/03 00:25:23;;;;;;;3.47;2.70;;;23.60;28.40;;;;;;5072406;28;20208;-42
2021/03/03 00:27:49;;;;;;;3.63;3.33;;;23.60;28.40;;;;;;5074092;28;20198;-44
2021/03/03 00:30:15;;;;;;;3.10;2.50;;;23.60;28.40;;;;;;5071850;28;20202;-45
2021/03/03 00:32:41;;;;;;;2.88;2.58;;;23.60;28.40;;;;;;5072554;28;20716;-45
2021/03/03 00:35:07;;;;;;;3.60;2.70;;;23.60;28.40;;;;;;5073314;28;20208;-54
2021/03/03 00:37:33;;;;;;;3.40;2.85;;;23.50;28.40;;;;;;5073104;28;20219;-45
2021/03/03 00:39:58;;;;;;;3.80;2.60;;;23.50;28.40;;;;;;5072490;28;20209;-54
2021/03/03 00:42:24;;;;;;;3.67;2.55;;;23.50;28.40;;;;;;5072462;28;20770;-48
2021/03/03 00:44:50;;;;;;;3.42;3.13;;;23.50;28.40;;;;;;5072642;28;20216;-45
2021/03/03 00:47:16;;;;;;;3.00;2.60;;;23.50;28.40;;;;;;5072489;28;20212;-52
2021/03/03 00:49:42;;;;;;;3.72;2.90;;;23.50;28.40;;;;;;5072400;28;20201;-52
2021/03/03 00:52:08;;;;;;;3.50;3.20;;;23.50;28.40;;;;;;5072404;28;20209;-55
2021/03/03 00:54:34;;;;;;;3.13;2.63;;;23.60;28.40;;;;;;5072604;28;20204;-55
2021/03/03 00:57:00;;;;;;;3.00;2.70;;;23.50;28.40;;;;;;5072594;28;20224;-51
2021/03/03 00:59:26;;;;;;;2.63;2.42;;;23.50;28.40;;;;;;5073309;28;20219;-55
2021/03/03 01:01:52;;;;;;;3.35;2.80;;;23.50;28.40;;;;;;5072327;28;20697;-54
2021/03/03 01:04:18;;;;;;;3.20;2.95;;;23.50;28.40;;;;;;5071774;28;20213;-45
2021/03/03 01:06:43;;;;;;;4.20;2.75;;;23.50;28.40;;;;;;5073415;28;20213;-46
2021/03/03 01:09:09;;;;;;;4.47;2.67;;;23.50;28.40;;;;;;5071974;28;20227;-51
2021/03/03 01:11:35;;;;;;;3.20;2.43;;;23.50;28.40;;;;;;5073060;28;20209;-53
2021/03/03 01:14:01;;;;;;;3.20;2.90;;;23.50;28.40;;;;;;5071697;28;20197;-50
2021/03/03 01:16:27;;;;;;;2.87;2.57;;;23.50;28.40;;;;;;5072039;28;20229;-49
2021/03/03 01:18:53;;;;;;;3.05;2.70;;;23.50;28.50;;;;;;5072722;28;20209;-56
2021/03/03 01:21:19;;;;;;;3.45;2.78;;;23.50;28.50;;;;;;5072949;28;20225;-53
2021/03/03 01:23:45;;;;;;;2.72;2.47;;;23.50;28.40;;;;;;5080691;28;20197;-49
2021/03/03 01:26:11;;;;;;;3.03;2.70;;;23.50;28.50;;;;;;5071460;28;20289;-53
2021/03/03 01:28:37;;;;;;;3.22;2.92;;;23.50;28.40;;;;;;5071401;28;20630;-52
2021/03/03 01:31:03;;;;;;;2.88;2.28;;;23.50;28.40;;;;;;5066493;28;20206;-45
2021/03/03 01:33:29;;;;;;;2.80;2.60;;;23.50;28.40;;;;;;5061499;28;20216;-46
2021/03/03 01:35:54;;;;;;;2.65;2.30;;;23.50;28.40;;;;;;5072548;28;20221;-52
2021/03/03 01:38:20;;;;;;;2.67;2.47;;;23.50;28.40;;;;;;5072565;28;20209;-57
2021/03/03 01:40:46;;;;;;;3.00;2.70;;;23.50;28.40;;;;;;5071029;28;20233;-52
2021/03/03 01:43:12;;;;;;;2.85;2.58;;;23.50;28.40;;;;;;5071716;28;20201;-57
2021/03/03 01:45:38;;;;;;;2.60;2.40;;;23.50;28.40;;;;;;5069940;28;20727;-48
2021/03/03 01:48:04;;;;;;;4.78;3.42;;;23.50;28.40;;;;;;5072878;28;20201;-51
2021/03/03 01:50:30;;;;;;;2.73;2.53;;;23.50;28.40;;;;;;5071320;28;20201;-54
2021/03/03 01:52:56;;;;;;;2.53;2.33;;;23.50;28.40;;;;;;5072995;28;20200;-49
2021/03/03 01:55:22;;;;;;;2.70;2.50;;;23.50;28.40;;;;;;5070954;28;20228;-51
2021/03/03 01:57:48;;;;;;;2.65;2.45;;;23.50;28.40;;;;;;5072584;28;20205;-50
2021/03/03 02:00:14;;;;;;;3.08;2.70;;;23.50;28.40;;;;;;5070890;28;20559;-45
2021/03/03 02:02:40;;;;;;;3.03;2.73;;;23.50;28.40;;;;;;5072628;28;20759;-47
2021/03/03 02:05:06;;;;;;;4.05;2.92;;;23.50;28.40;;;;;;5070599;28;20201;-49
2021/03/03 02:07:32;;;;;;;2.63;2.20;;;23.50;28.40;;;;;;5071974;28;20201;-51
2021/03/03 02:09:57;;;;;;;2.83;2.63;;;23.50;28.40;;;;;;5071085;28;20258;-50
2021/03/03 02:12:23;;;;;;;3.17;2.72;;;23.50;28.40;;;;;;5072158;28;20212;-56
2021/03/03 02:14:49;;;;;;;2.58;2.30;;;23.50;28.40;;;;;;5069490;28;20204;-47
2021/03/03 02:17:15;;;;;;;2.42;2.22;;;23.50;28.40;;;;;;5071790;28;20197;-49
2021/03/03 02:19:41;;;;;;;3.47;2.50;;;23.50;28.40;;;;;;5067092;28;20201;-49
2021/03/03 02:22:07;;;;;;;2.73;2.50;;;23.50;28.40;;;;;;5072250;28;20318;-48
2021/03/03 02:24:33;;;;;;;3.50;2.50;;;23.50;28.40;;;;;;5070118;28;20201;-49
2021/03/03 02:26:59;;;;;;;3.20;3.00;;;23.50;28.40;;;;;;5062363;28;20247;-58
2021/03/03 02:29:25;;;;;;;2.50;2.30;;;23.40;28.30;;;;;;5070780;28;20228;-47
2021/03/03 02:31:51;;;;;;;2.80;2.60;;;23.50;28.40;;;;;;5071833;28;20266;-46
2021/03/03 02:34:17;;;;;;;2.63;2.43;;;23.50;28.40;;;;;;5073998;22;20806;-49
2021/03/03 02:36:43;;;;;;;2.30;2.10;;;23.50;28.40;;;;;;5064996;28;20235;-49
2021/03/03 02:39:09;;;;;;;3.47;2.50;;;23.50;28.40;;;;;;5071351;28;20205;-44
2021/03/03 02:41:35;;;;;;;3.37;2.60;;;23.50;28.40;;;;;;5071061;28;20294;-45
2021/03/03 02:44:01;;;;;;;2.35;2.13;;;23.40;28.30;;;;;;5069979;28;20209;-49
2021/03/03 02:46:27;;;;;;;3.05;2.35;;;23.50;28.40;;;;;;5068924;28;20244;-50
2021/03/03 02:48:52;;;;;;;3.40;2.50;;;23.50;28.40;;;;;;5051991;28;20288;-45
2021/03/03 02:51:18;;;;;;;2.40;2.20;;;23.50;28.40;;;;;;5070317;28;20200;-52
2021/03/03 02:53:44;;;;;;;2.83;2.20;;;23.50;28.40;;;;;;5058348;28;20468;-52
2021/03/03 02:56:10;;;;;;;6.53;2.57;;;23.50;28.40;;;;;;5070109;28;20213;-46
2021/03/03 02:58:36;;;;;;;3.70;2.55;;;23.50;28.40;;;;;;5064116;28;20197;-42
2021/03/03 03:01:02;;;;;;;2.35;2.15;;;23.50;28.40;;;;;;5070882;28;20581;-42
2021/03/03 03:03:28;;;;;;;2.60;2.40;;;23.50;28.40;;;;;;5061394;28;20564;-43
2021/03/03 03:05:54;;;;;;;2.93;2.70;;;23.50;28.40;;;;;;5057178;28;20221;-43
2021/03/03 03:08:20;;;;;;;2.50;2.30;;;23.50;28.50;;;;;;5064335;28;20210;-47
2021/03/03 03:10:46;;;;;;;2.28;2.08;;;23.50;28.40;;;;;;5070712;28;20197;-48
2021/03/03 03:13:12;;;;;;;2.50;2.30;;;23.50;28.50;;;;;;5070696;28;20211;-45
2021/03/03 03:15:38;;;;;;;4.07;2.70;;;23.40;28.40;;;;;;5069797;28;20217;-54
2021/03/03 03:18:04;;;;;;;3.65;2.35;;;23.50;28.50;;;;;;5061227;28;20575;-50
2021/03/03 03:20:29;;;;;;;2.90;2.43;;;23.40;28.40;;;;;;5069993;28;20668;-46
2021/03/03 03:22:55;;;;;;;2.70;2.50;;;23.40;28.40;;;;;;5070339;28;20197;-43
2021/03/03 03:25:21;;;;;;;2.65;2.40;;;23.40;28.40;;;;;;5067127;28;20224;-51
2021/03/03 03:27:47;;;;;;;2.47;2.28;;;23.40;28.40;;;;;;5054189;28;20205;-48
2021/03/03 03:30:13;;;;;;;2.70;2.50;;;23.40;28.40;;;;;;5054001;28;20685;-49
2021/03/03 03:32:39;;;;;;;2.65;2.45;;;23.40;28.30;;;;;;5069169;28;20204;-49
2021/03/03 03:35:05;;;;;;;2.28;2.10;;;23.50;28.40;;;;;;5053490;28;20233;-45
2021/03/03 03:37:31;;;;;;;2.67;2.47;;;23.40;28.30;;;;;;5049865;28;20213;-49
2021/03/03 03:39:57;;;;;;;2.47;2.27;;;23.40;28.40;;;;;;5065536;28;20201;-46
2021/03/03 03:42:23;;;;;;;2.43;2.23;;;23.50;28.50;;;;;;5050636;28;20233;-47
2021/03/03 03:44:49;;;;;;;3.40;2.38;;;23.50;28.50;;;;;;5066515;28;20269;-46
2021/03/03 03:47:14;;;;;;;2.47;2.27;;;23.50;28.50;;;;;;5051762;28;20235;-44
2021/03/03 03:49:40;;;;;;;2.70;2.50;;;23.40;28.40;;;;;;5067735;28;20212;-50
2021/03/03 03:52:06;;;;;;;2.43;2.23;;;23.50;28.50;;;;;;5074238;28;20465;-48
2021/03/03 03:54:32;;;;;;;2.77;2.20;;;23.40;28.40;;;;;;5060580;28;20580;-43
2021/03/03 03:56:58;;;;;;;2.57;2.37;;;23.50;28.50;;;;;;5056057;28;20198;-45
2021/03/03 03:59:24;;;;;;;2.60;2.40;;;23.40;28.40;;;;;;5059063;28;20210;-45
2021/03/03 04:01:50;;;;;;;2.30;2.10;;;23.50;28.40;;;;;;5073556;28;20228;-43
2021/03/03 04:04:16;;;;;;;3.00;2.33;;;23.50;28.50;;;;;;5065323;28;20204;-49
2021/03/03 04:06:42;;;;;;;2.60;2.40;;;23.50;28.50;;;;;;5074063;28;20231;-42
2021/03/03 04:09:08;;;;;;;2.83;2.20;;;23.40;28.50;;;;;;5066455;28;20206;-46
2021/03/03 04:11:34;;;;;;;2.90;2.50;;;23.40;28.50;;;;;;5057966;28;21903;-44
2021/03/03 04:13:59;;;;;;;2.63;2.33;;;23.40;28.50;;;;;;5065756;28;20201;-44
2021/03/03 04:16:25;;;;;;;3.10;2.20;;;23.40;28.60;;;;;;5073277;28;20736;-47
2021/03/03 04:18:51;;;;;;;2.37;2.03;;;23.40;28.50;;;;;;5065239;28;20197;-44
2021/03/03 04:21:17;;;;;;;2.70;2.40;;;23.40;28.60;;;;;;5065969;28;20228;-44
2021/03/03 04:23:43;;;;;;;2.50;2.30;;;23.40;28.60;;;;;;5073150;28;20212;-42
2021/03/03 04:26:09;;;;;;;2.60;2.10;;;23.40;28.60;;;;;;5073488;28;20246;-43
2021/03/03 04:28:35;;;;;;;2.00;1.90;;;23.40;28.60;;;;;;5073347;28;20205;-46
2021/03/03 04:31:01;;;;;;;2.85;2.58;;;23.40;28.60;;;;;;5067637;28;20202;-47
2021/03/03 04:33:27;;;;;;;2.85;2.65;;;23.40;28.60;;;;;;5074400;28;20217;-46
2021/03/03 04:35:53;;;;;;;2.58;2.08;;;23.40;28.60;;;;;;5062531;28;20247;-46
2021/03/03 04:38:19;;;;;;;2.50;2.30;;;23.40;28.60;;;;;;5074254;28;20653;-44
2021/03/03 04:40:45;;;;;;;2.53;2.33;;;23.40;28.50;;;;;;5065842;28;20233;-42
2021/03/03 04:43:10;;;;;;;2.50;2.30;;;23.40;28.50;;;;;;5054810;28;20206;-41
2021/03/03 04:45:36;;;;;;;3.13;2.37;;;23.40;28.50;;;;;;5053459;28;20226;-41
2021/03/03 04:48:02;;;;;;;3.47;2.17;;;23.40;28.80;;;;;;5064910;28;20204;-44
2021/03/03 04:50:28;;;;;;;2.40;2.15;;;23.40;28.80;;;;;;5063389;28;20201;-42
2021/03/03 04:52:54;;;;;;;3.37;2.27;;;23.40;28.70;;;;;;5072955;28;20254;-45
2021/03/03 04:55:20;;;;;;;3.72;2.40;;;23.40;28.70;;;;;;5072335;28;20232;-47
2021/03/03 04:57:46;;;;;;;3.30;2.17;;;23.40;28.60;;;;;;5068294;28;20568;-46
2021/03/03 05:00:12;;;;;;;2.30;2.05;;;23.40;28.60;;;;;;5069870;28;20665;-43
2021/03/03 05:02:38;;;;;;;2.47;2.10;;;23.40;28.60;;;;;;5072674;28;20232;-41
2021/03/03 05:05:04;;;;;;;2.83;2.17;;;23.40;28.50;;;;;;5066240;28;20218;-42
2021/03/03 05:07:30;;;;;;;2.83;2.07;;;23.40;28.60;;;;;;5073234;28;20201;-42
2021/03/03 05:09:55;;;;;;;2.53;2.20;;;23.40;28.50;;;;;;5059175;28;20217;-47
2021/03/03 05:12:23;;;;;;;2.67;2.40;;;23.40;28.50;;;;;;5070442;28;20217;-44
2021/03/03 05:14:49;;;;;;;2.57;2.10;;;23.40;28.50;;;;;;5064507;28;20582;-45
2021/03/03 05:17:15;;;;;;;2.67;2.30;;;23.40;28.50;;;;;;5064406;28;20211;-45
2021/03/03 05:19:41;;;;;;;2.65;2.45;;;23.40;28.50;;;;;;5061183;28;20206;-42
2021/03/03 05:22:06;;;;;;;2.45;2.10;;;23.40;28.50;;;;;;5065453;28;20258;-43
2021/03/03 05:24:32;;;;;;;2.70;2.20;;;23.40;28.50;;;;;;5071368;28;20225;-45
2021/03/03 05:26:58;;;;;;;3.45;2.30;;;23.40;28.50;;;;;;5057170;28;20214;-46
2021/03/03 05:29:24;;;;;;;2.15;1.95;;;23.40;28.60;;;;;;5062171;28;20205;-42
2021/03/03 05:31:50;;;;;;;2.40;1.80;;;23.40;28.50;;;;;;5071972;28;20208;-45
2021/03/03 05:34:16;;;;;;;2.22;2.03;;;23.40;28.50;;;;;;5069041;28;20229;-47
2021/03/03 05:36:42;;;;;;;2.95;2.20;;;23.40;28.50;;;;;;5059215;28;20197;-44
2021/03/03 05:39:08;;;;;;;3.08;2.40;;;23.40;28.50;;;;;;5071274;28;20201;-45
2021/03/03 05:41:34;;;;;;;3.60;2.30;;;23.40;28.50;;;;;;5072710;28;20673;-44
2021/03/03 05:44:00;;;;;;;2.45;2.25;;;23.40;28.40;;;;;;5053238;28;20237;-41
2021/03/03 05:46:26;;;;;;;2.40;2.20;;;23.40;28.30;;;;;;5059954;28;20202;-41
2021/03/03 05:48:52;;;;;;;2.58;2.30;;;23.40;28.40;;;;;;5056752;28;20202;-42
2021/03/03 05:51:18;;;;;;;2.40;2.13;;;23.40;28.40;;;;;;5070566;28;20216;-43
2021/03/03 05:53:44;;;;;;;3.03;2.47;;;23.40;28.40;;;;;;5071731;28;20472;-46
2021/03/03 05:56:09;;;;;;;3.13;1.93;;;23.40;28.40;;;;;;5067958;28;20646;-44
2021/03/03 05:58:35;;;;;;;2.47;2.10;;;23.40;28.40;;;;;;5071781;28;20579;-42
2021/03/03 06:01:01;;;;;;;2.30;1.90;;;23.40;28.40;;;;;;5066782;28;20684;-46
2021/03/03 06:03:27;;;;;;;2.47;2.28;;;23.40;28.30;;;;;;5071864;28;20263;-45
2021/03/03 06:05:53;;;;;;;3.00;2.20;;;23.40;28.40;;;;;;5068455;28;20272;-41
2021/03/03 06:08:19;;;;;;;2.20;2.00;;;23.40;28.30;;;;;;5064981;28;20205;-42
2021/03/03 06:10:45;;;;;;;3.53;2.38;;;23.40;28.30;;;;;;5070303;28;20208;-46
2021/03/03 06:13:11;;;;;;;3.33;2.25;;;23.40;28.30;;;;;;5061794;28;20209;-43
2021/03/03 06:15:37;;;;;;;3.85;2.00;;;23.40;28.30;;;;;;5070914;28;20224;-42
2021/03/03 06:18:03;;;;;;;2.30;2.10;;;23.40;28.50;;;;;;5063864;28;20204;-45
2021/03/03 06:20:31;;;;;;;3.58;2.10;;;23.40;28.40;;;;;;5071222;28;20205;-44
2021/03/03 06:22:57;;;;;;;2.88;2.00;;;23.40;28.40;;;;;;5070224;28;20216;-43
2021/03/03 06:25:23;;;;;;;3.07;2.10;;;23.40;28.50;;;;;;5071317;28;20690;-41
2021/03/03 06:27:49;;;;;;;2.28;2.00;;;23.40;28.40;;;;;;5063980;28;20223;-43
2021/03/03 06:30:15;;;;;;;3.22;2.45;;;23.40;28.40;;;;;;5070989;28;20258;-41
2021/03/03 06:32:41;;;;;;;2.30;2.10;;;23.40;28.40;;;;;;5067664;28;20204;-43
2021/03/03 06:35:07;;;;;;;2.83;1.90;;;23.40;28.30;;;;;;5069826;28;20232;-43
2021/03/03 06:37:33;;;;;;;2.38;2.17;;;23.40;28.30;;;;;;5069847;28;20212;-44
2021/03/03 06:39:58;;;;;;;1.90;1.80;;;23.40;28.30;;;;;;5071094;28;20247;-45
2021/03/03 06:42:24;;;;;;;1.80;1.70;;;23.40;28.30;;;;;;5070908;28;20236;-48
2021/03/03 06:44:50;;;;;;;2.90;2.20;;;23.40;28.30;;;;;;5069177;28;20232;-47
2021/03/03 06:47:16;;;;;;;2.97;2.13;;;23.40;28.30;;;;;;5071113;28;20205;-47
2021/03/03 06:49:43;;;;;;;3.13;2.20;;;23.40;28.30;;;;;;5062779;28;20573;-47
2021/03/03 06:52:09;;;;;;;3.38;1.90;;;23.40;28.30;;;;;;5059348;28;20208;-44
2021/03/03 06:54:35;;;;;;;2.13;1.90;;;23.40;28.30;;;;;;5067849;28;20229;-45
2021/03/03 06:57:01;;;;;;;2.67;2.10;;;23.40;28.30;;;;;;5069830;28;20209;-42
2021/03/03 06:59:27;;;;;;;2.30;2.00;;;23.40;28.30;;;;;;5070631;28;20197;-44
2021/03/03 07:01:52;;;;;;;2.17;1.98;;;23.40;28.30;;;;;;5066564;28;20221;-43
2021/03/03 07:04:18;;;;;;;2.50;1.98;;;23.40;28.30;;;;;;5068730;28;20228;-47
2021/03/03 07:06:44;;;;;;;2.20;2.00;;;23.40;28.30;;;;;;5069251;28;20205;-44
2021/03/03 07:09:11;;;;;;;2.22;2.03;;;23.50;28.40;;;;;;5067916;28;20680;-42
2021/03/03 07:11:37;;;;;;;2.22;2.05;;;23.40;28.30;;;;;;5070818;28;20212;-43
2021/03/03 07:14:03;;;;;;;2.30;2.10;;;23.40;28.30;;;;;;5054251;28;20697;-41
2021/03/03 07:16:29;;;;;;;2.58;2.38;;;23.40;28.30;;;;;;5066096;28;20212;-49
2021/03/03 07:18:54;;;;;;;2.77;2.13;;;23.40;28.30;;;;;;5069390;28;20219;-46
2021/03/03 07:21:20;;;;;;;1.98;1.80;;;23.40;28.30;;;;;;5070988;28;20234;-43
2021/03/03 07:23:46;;;;;;;1.77;1.65;;;23.40;28.30;;;;;;5071612;28;20216;-48
2021/03/03 07:26:12;;;;;;;1.92;1.77;;;23.40;28.30;;;;;;5073797;28;20277;-44
2021/03/03 07:28:38;;;;;;;2.85;2.00;;;23.40;28.30;;;;;;5071858;28;20213;-44
2021/03/03 07:31:04;;;;;;;2.22;2.03;;;23.40;28.30;;;;;;5066175;28;20216;-45
2021/03/03 07:33:30;;;;;;;1.90;1.75;;;23.40;28.30;;;;;;5064112;28;20212;-48
2021/03/03 07:35:56;;;;;;;2.70;2.20;;;23.40;28.30;;;;;;5069795;28;20201;-44
2021/03/03 07:38:22;;;;;;;2.35;1.90;;;23.50;28.40;;;;;;5063916;28;20201;-50
2021/03/03 07:40:48;;;;;;;1.80;1.70;;;23.40;28.30;;;;;;5073991;28;20205;-42
2021/03/03 07:43:14;;;;;;;2.20;1.95;;;23.50;28.40;;;;;;5072519;28;20204;-49
2021/03/03 07:45:40;;;;;;;2.35;1.77;;;23.50;28.40;;;;;;5060370;28;20244;-45
2021/03/03 07:48:06;;;;;;;2.15;1.90;;;23.50;28.40;;;;;;5073429;28;20197;-42
2021/03/03 07:50:32;;;;;;;1.83;1.73;;;23.50;28.40;;;;;;5058346;28;20206;-47
2021/03/03 07:52:58;;;;;;;1.80;1.70;;;23.50;28.40;;;;;;5056226;28;20204;-53
2021/03/03 07:55:24;;;;;;;5.85;2.20;;;23.50;28.40;;;;;;5072353;28;20225;-48
2021/03/03 07:57:50;;;;;;;4.38;2.25;;;23.40;29.40;;;;;;5073652;28;20197;-44
2021/03/03 08:00:16;;;;;;;2.50;1.70;;;23.50;29.60;;;;;;5064372;28;20208;-44
2021/03/03 08:02:42;;;;;;;3.45;1.90;;;23.50;29.50;;;;;;5064947;28;20286;-44
2021/03/03 08:05:07;;;;;;;4.18;2.10;;;23.50;29.50;;;;;;5071298;28;20283;-45
2021/03/03 08:07:33;;;;;;;3.17;2.15;;;23.50;29.50;;;;;;5072866;28;20266;-49
2021/03/03 08:09:59;;;;;;;8.32;2.10;;;23.50;29.60;;;;;;5070879;28;20207;-50
2021/03/03 08:12:25;;;;;;;3.75;1.80;;;23.50;30.00;;;;;;5065749;28;20201;-47
2021/03/03 08:14:51;;;;;;;3.20;1.67;;;23.60;29.30;;;;;;5072513;28;20274;-52
2021/03/03 08:17:17;;;;;;;3.63;1.95;;;23.50;29.20;;;;;;5072296;28;20353;-45
2021/03/03 08:19:43;;;;;;;3.65;1.85;;;23.50;29.40;;;;;;5064771;28;20228;-44
2021/03/03 08:22:09;;;;;;;5.15;2.05;;;23.50;30.50;;;;;;5071024;28;20712;-46
2021/03/03 08:24:35;;;;;;;10.57;2.63;;;23.50;29.80;;;;;;5070041;28;20233;-44
2021/03/03 08:27:01;;;;;;;3.63;1.75;;;23.50;30.90;;;;;;5070403;28;20209;-42
2021/03/03 08:29:27;;;;;;;8.00;3.38;;;23.50;32.40;;;;;;5073517;28;20205;-50
2021/03/03 08:31:53;;;;;;;5.95;2.85;;;23.40;33.50;;;;;;5066842;28;20288;-42
2021/03/03 08:34:19;;;;;;;5.18;2.50;;;23.40;32.60;;;;;;5068188;28;20229;-45
2021/03/03 08:36:45;;;;;;;4.75;2.50;;;23.30;32.30;;;;;;5073662;28;20205;-46
2021/03/03 08:39:11;;;;;;;6.60;2.47;;;23.20;32.20;;;;;;5070507;28;20278;-46
2021/03/03 08:41:36;;;;;;;5.28;2.60;;;23.20;30.90;;;;;;5073460;28;20224;-46
2021/03/03 08:44:02;;;;;;;4.28;2.55;;;23.10;30.90;;;;;;5072192;28;20225;-45
2021/03/03 08:46:28;;;;;;;4.55;2.50;;;23.10;30.20;;;;;;5073732;28;20243;-43
2021/03/03 08:48:54;;;;;;;6.75;3.03;;;23.10;30.70;;;;;;5072704;28;20205;-43
2021/03/03 08:51:20;;;;;;;7.13;3.20;;;22.50;27.70;;;;;;5069949;28;20208;-51
2021/03/03 08:53:46;;;;;;;9.43;3.13;;;22.00;27.70;;;;;;5070586;28;20216;-47
2021/03/03 08:56:12;;;;;;;6.93;3.10;;;21.40;25.00;;;;;;5063867;28;20197;-46
2021/03/03 08:58:38;;;;;;;7.37;3.10;;;21.50;24.10;;;;;;5055270;28;20212;-45
2021/03/03 09:01:04;;;;;;;6.17;2.70;;;21.80;27.30;;;;;;5062704;28;20290;-46
2021/03/03 09:03:30;;;;;;;3.60;2.70;;;22.10;28.90;;;;;;5060642;28;20289;-44
2021/03/03 09:05:56;;;;;;;5.17;2.10;;;22.30;30.10;;;;;;5070346;28;20208;-46
2021/03/03 09:08:22;;;;;;;6.50;2.33;;;22.50;31.30;;;;;;5072893;28;20560;-43
2021/03/03 09:10:47;;;;;;;4.50;2.07;;;22.60;32.00;;;;;;5065155;28;20649;-45
2021/03/03 09:13:13;;;;;;;5.27;2.07;;;22.70;32.20;;;;;;5068386;28;20220;-47
2021/03/03 09:15:39;;;;;;;3.87;2.23;;;22.70;32.60;;;;;;5052498;28;20211;-44
2021/03/03 09:18:05;;;;;;;2.77;1.80;;;22.80;33.00;;;;;;5070820;28;20306;-49
2021/03/03 09:20:31;;;;;;;3.20;1.80;;;22.80;33.10;;;;;;5059160;28;20208;-45
2021/03/03 09:22:57;;;;;;;2.07;1.87;;;22.90;33.40;;;;;;5071911;28;20239;-46
2021/03/03 09:25:24;;;;;;;2.13;1.77;;;22.90;33.50;;;;;;5055754;28;20212;-44
2021/03/03 09:27:50;;;;;;;2.75;1.80;;;22.90;33.50;;;;;;5065972;28;20371;-46
2021/03/03 09:30:16;;;;;;;3.43;1.40;;;23.00;33.60;;;;;;5071736;28;20197;-48
2021/03/03 09:32:42;;;;;;;3.60;1.50;;;23.00;33.70;;;;;;5065442;28;20232;-42
2021/03/03 09:35:08;;;;;;;2.47;1.50;;;23.00;32.30;;;;;;5068546;28;20279;-43
2021/03/03 09:37:34;;;;;;;2.30;1.60;;;23.00;33.50;;;;;;5071560;28;20209;-46
2021/03/03 09:40:00;;;;;;;2.33;1.40;;;23.10;32.80;;;;;;5071140;28;20200;-44
2021/03/03 09:42:26;;;;;;;1.60;1.50;;;23.10;33.40;;;;;;5072547;28;20232;-44
2021/03/03 09:44:52;;;;;;;3.60;2.50;;;23.10;33.90;;;;;;5062275;28;20217;-45
2021/03/03 09:47:18;;;;;;;5.17;3.33;;;23.10;30.10;;;;;;5071116;28;20211;-43
2021/03/03 09:49:44;;;;;;;4.70;2.67;;;23.10;28.50;;;;;;5070300;28;20193;-42
2021/03/03 09:52:10;;;;;;;5.77;2.37;;;23.20;29.50;;;;;;5064408;28;20197;-44
2021/03/03 09:54:35;;;;;;;4.13;2.00;;;23.20;30.50;;;;;;5066038;28;20225;-44
2021/03/03 09:57:01;;;;;;;4.40;2.00;;;23.20;32.10;;;;;;5071556;28;20205;-45
2021/03/03 09:59:27;;;;;;;6.73;2.00;;;23.10;30.70;;;;;;5061881;28;20202;-45
2021/03/03 10:01:53;;;;;;;3.65;1.60;;;23.20;30.20;;;;;;5063884;28;20588;-44
2021/03/03 10:04:19;;;;;;;2.17;1.65;;;23.30;30.10;;;;;;5065552;28;20224;-39
2021/03/03 10:06:45;;;;;;;4.27;1.90;;;23.30;30.40;;;;;;5068069;28;20209;-43
2021/03/03 10:09:11;;;;;;;3.77;1.73;;;23.30;30.40;;;;;;5058597;28;20212;-49
2021/03/03 10:11:38;;;;;;;3.73;2.13;;;23.30;30.30;;;;;;5064902;28;20213;-42
2021/03/03 10:14:04;;;;;;;5.47;1.70;;;23.30;30.40;;;;;;5069345;28;20302;-44
2021/03/03 10:16:30;;;;;;;3.90;1.70;;;23.30;30.10;;;;;;5069956;28;20211;-44
2021/03/03 10:18:55;;;;;;;3.63;1.85;;;23.30;29.90;;;;;;5069732;28;20201;-47
2021/03/03 10:21:21;;;;;;;2.50;1.52;;;23.30;29.90;;;;;;5071124;28;20221;-47
2021/03/03 10:23:47;;;;;;;2.88;1.48;;;23.30;29.90;;;;;;5057361;28;20632;-49
2021/03/03 10:26:13;;;;;;;2.58;2.28;;;23.40;29.80;;;;;;5055040;28;20204;-43
2021/03/03 10:28:40;;;;;;;2.60;1.60;;;23.40;29.80;;;;;;5065359;28;20205;-45
2021/03/03 10:31:07;;;;;;;5.70;2.85;;;23.40;30.20;;;;;;5064266;28;21744;-46
2021/03/03 10:33:33;;;;;;;9.18;1.98;;;23.40;28.30;;;;;;5070460;28;20731;-47
2021/03/03 10:35:59;;;;;;;3.55;2.17;;;23.40;28.90;;;;;;5067619;28;20197;-43
2021/03/03 10:38:24;;;;;;;3.30;1.80;;;23.40;29.20;;;;;;5071186;28;20215;-48
2021/03/03 10:40:50;;;;;;;2.92;2.05;;;23.40;29.50;;;;;;5071553;28;20209;-43
2021/03/03 10:43:16;;;;;;;2.95;2.10;;;23.40;29.70;;;;;;5067567;28;20225;-43
2021/03/03 10:45:42;;;;;;;3.15;1.80;;;23.30;29.80;;;;;;5058515;28;20208;-47
2021/03/03 10:48:08;;;;;;;2.97;1.95;;;23.30;29.80;;;;;;5071249;28;20209;-44
2021/03/03 10:50:35;;;;;;;4.03;1.60;;;23.30;29.90;;;;;;5071804;28;20201;-44
2021/03/03 10:53:01;;;;;;;3.10;1.42;;;23.30;29.90;;;;;;5071639;28;20235;-44
2021/03/03 10:55:27;;;;;;;2.05;1.60;;;23.30;29.90;;;;;;5071560;28;20197;-45
2021/03/03 10:57:53;;;;;;;3.53;1.50;;;23.40;30.00;;;;;;5071522;28;20208;-46
2021/03/03 11:00:19;;;;;;;3.03;1.70;;;23.30;29.90;;;;;;5071825;28;20270;-45
2021/03/03 11:02:45;;;;;;;1.73;1.50;;;23.30;29.90;;;;;;5069949;28;20245;-48
2021/03/03 11:05:11;;;;;;;3.13;1.80;;;23.30;30.00;;;;;;5070369;28;20205;-49
2021/03/03 11:07:37;;;;;;;3.50;1.88;;;23.30;30.00;;;;;;5071849;28;20533;-44
2021/03/03 11:10:03;;;;;;;3.65;2.10;;;23.30;29.90;;;;;;5071588;28;20653;-47
2021/03/03 11:12:28;;;;;;;3.97;1.60;;;23.40;30.00;;;;;;5071511;28;20205;-43
2021/03/03 11:14:54;;;;;;;3.50;1.73;;;23.30;29.90;;;;;;5071050;28;20410;-46
2021/03/03 11:17:20;;;;;;;3.17;1.63;;;23.40;29.90;;;;;;5071632;28;20200;-43
2021/03/03 11:19:46;;;;;;;2.97;1.75;;;23.30;29.80;;;;;;5071477;28;20212;-43
2021/03/03 11:22:12;;;;;;;4.47;1.52;;;23.40;29.80;;;;;;5070945;28;20233;-43
2021/03/03 11:24:38;;;;;;;4.00;1.50;;;23.40;29.70;;;;;;5066000;28;20229;-45
2021/03/03 11:27:04;;;;;;;7.35;2.25;;;23.30;29.70;;;;;;5063035;28;20612;-43
2021/03/03 11:29:30;;;;;;;4.22;3.22;;;23.40;29.30;;;;;;5064366;28;20669;-50
2021/03/03 11:31:56;;;;;;;7.97;3.70;;;23.40;27.50;;;;;;5063804;28;20201;-43
2021/03/03 11:34:22;;;;;;;6.40;3.90;;;23.10;24.20;;;;;;5062888;28;20233;-49
2021/03/03 11:36:48;;;;;;;6.55;3.67;;;23.10;23.80;;;;;;5062137;28;20205;-44
2021/03/03 11:39:14;;;;;;;6.03;3.70;;;23.00;22.60;;;;;;5061293;28;20224;-46
2021/03/03 11:41:39;;;;;;;6.65;4.43;;;23.00;21.30;;;;;;5063822;28;20228;-49
2021/03/03 11:44:06;;;;;;;4.60;4.10;;;23.00;20.50;;;;;;5059973;28;20290;-43
2021/03/03 11:46:32;;;;;;;4.80;4.30;;;22.90;20.90;;;;;;5059710;28;20224;-45
2021/03/03 11:48:58;;;;;;;5.33;4.23;;;22.90;20.20;;;;;;5062205;28;20556;-44
2021/03/03 11:51:23;;;;;;;6.88;4.40;;;22.90;20.10;;;;;;5062321;28;20745;-49
2021/03/03 11:53:50;;;;;;;5.18;4.40;;;22.90;19.70;;;;;;5063084;28;20716;-45
2021/03/03 11:56:16;;;;;;;6.15;3.78;;;22.90;20.10;;;;;;5062217;28;20197;-48
2021/03/03 11:58:42;;;;;;;6.20;4.07;;;22.80;19.40;;;;;;5064492;28;20237;-49
2021/03/03 12:01:08;;;;;;;4.87;3.97;;;22.90;20.10;;;;;;5060899;28;20209;-45
2021/03/03 12:03:34;;;;;;;5.03;4.03;;;22.80;20.10;;;;;;5060913;28;20225;-51
2021/03/03 12:06:00;;;;;;;4.80;3.93;;;22.90;19.70;;;;;;5062066;28;20209;-50
2021/03/03 12:08:26;;;;;;;3.93;3.13;;;22.90;20.10;;;;;;5059331;28;20206;-49
2021/03/03 12:10:51;;;;;;;3.78;2.60;;;23.00;20.90;;;;;;5066179;28;20259;-47
2021/03/03 12:13:17;;;;;;;3.60;2.60;;;23.00;22.10;;;;;;5067663;28;20232;-50
2021/03/03 12:15:43;;;;;;;2.72;2.30;;;23.10;22.80;;;;;;5065904;28;20197;-50
2021/03/03 12:18:09;;;;;;;3.92;3.30;;;23.00;22.90;;;;;;5066292;28;20201;-48
2021/03/03 12:20:35;;;;;;;4.70;3.60;;;23.00;21.10;;;;;;5068104;28;20208;-45
2021/03/03 12:23:01;;;;;;;3.93;3.00;;;22.70;22.10;;;;;;5057186;28;20263;-47
2021/03/03 12:25:27;;;;;;;3.80;3.00;;;22.90;22.30;;;;;;5064136;28;20700;-51
2021/03/03 12:27:53;;;;;;;4.22;2.50;;;23.00;22.80;;;;;;5066198;28;20661;-46
2021/03/03 12:30:19;;;;;;;3.17;2.88;;;23.00;23.00;;;;;;5064970;28;20209;-45
2021/03/03 12:32:45;;;;;;;3.10;2.33;;;23.00;23.10;;;;;;5066305;28;20236;-47
2021/03/03 12:35:11;;;;;;;3.35;2.38;;;23.10;23.50;;;;;;5064335;28;20216;-46
2021/03/03 12:37:37;;;;;;;2.88;2.50;;;23.10;23.60;;;;;;5072244;28;20254;-48
2021/03/03 12:40:02;;;;;;;3.35;2.63;;;23.10;23.90;;;;;;5072756;28;20212;-43